createdAt,value
2022-08-01T00:00:04.960Z,20.40
2022-08-01T00:02:32.016Z,20.30
2022-08-01T00:04:58.968Z,20.40
2022-08-01T00:07:25.574Z,20.30
2022-08-01T00:09:52.259Z,20.30
2022-08-01T00:12:18.917Z,20.30
2022-08-01T00:14:45.476Z,20.30
2022-08-01T00:17:12.043Z,20.20
2022-08-01T00:19:38.588Z,20.20
2022-08-01T00:22:05.330Z,20.30
2022-08-01T00:24:32.114Z,20.30
2022-08-01T00:26:58.689Z,20.30
2022-08-01T00:30:12.761Z,20.30
2022-08-01T00:32:11.808Z,20.30
2022-08-01T00:34:38.365Z,20.20
2022-08-01T00:37:04.912Z,20.20
2022-08-01T00:39:33.514Z,20.20
2022-08-01T00:42:00.753Z,20.20
2022-08-01T00:44:27.845Z,20.20
2022-08-01T00:46:54.397Z,20.30
2022-08-01T00:49:21.006Z,20.30
2022-08-01T00:51:47.743Z,20.20
2022-08-01T00:54:16.637Z,20.30
2022-08-01T00:56:43.897Z,20.30
2022-08-01T00:59:12.010Z,20.30
2022-08-01T01:01:41.121Z,20.20
2022-08-01T01:04:13.587Z,20.20
2022-08-01T01:06:49.504Z,20.30
2022-08-01T01:09:20.835Z,20.20
2022-08-01T01:11:57.939Z,20.20
2022-08-01T01:14:31.625Z,20.20
2022-08-01T01:16:59.349Z,20.20
2022-08-01T01:19:28.696Z,20.20
2022-08-01T01:22:01.911Z,20.30
2022-08-01T01:24:57.935Z,20.20
2022-08-01T01:27:39.232Z,20.20
2022-08-01T01:30:07.006Z,20.20
2022-08-01T01:32:39.217Z,20.20
2022-08-01T01:35:07.633Z,20.10
2022-08-01T01:37:35.262Z,20.20
2022-08-01T01:40:03.758Z,20.20
2022-08-01T01:42:31.675Z,20.20
2022-08-01T01:44:59.143Z,20.20
2022-08-01T01:47:26.483Z,20.10
2022-08-01T01:49:54.944Z,20.10
2022-08-01T01:52:22.831Z,20.10
2022-08-01T01:54:50.341Z,20.10
2022-08-01T01:57:17.140Z,20.10
2022-08-01T01:59:45.030Z,20.00
2022-08-01T02:02:12.783Z,20.00
2022-08-01T02:04:43.406Z,20.10
2022-08-01T02:07:11.127Z,20.10
2022-08-01T02:09:38.617Z,20.00
2022-08-01T02:12:08.643Z,20.10
2022-08-01T02:14:38.823Z,20.10
2022-08-01T02:17:05.413Z,20.00
2022-08-01T02:19:32.956Z,20.00
2022-08-01T02:22:10.728Z,20.00
2022-08-01T02:24:38.551Z,20.00
2022-08-01T02:27:13.591Z,20.00
2022-08-01T02:29:50.900Z,20.00
2022-08-01T02:32:24.205Z,20.00
2022-08-01T02:34:51.923Z,20.00
2022-08-01T02:37:19.515Z,20.10
2022-08-01T02:39:48.671Z,20.00
2022-08-01T02:42:16.080Z,20.00
2022-08-01T02:44:44.041Z,20.00
2022-08-01T02:47:11.271Z,20.00
2022-08-01T02:49:43.584Z,19.90
2022-08-01T02:52:16.725Z,19.90
2022-08-01T02:54:45.176Z,19.80
2022-08-01T02:57:13.757Z,19.80
2022-08-01T02:59:41.471Z,19.90
2022-08-01T03:02:09.761Z,19.80
2022-08-01T03:04:37.732Z,19.80
2022-08-01T03:07:05.733Z,19.80
2022-08-01T03:09:34.887Z,19.90
2022-08-01T03:12:03.848Z,19.80
2022-08-01T03:14:31.674Z,19.80
2022-08-01T03:16:58.906Z,19.70
2022-08-01T03:19:27.019Z,19.70
2022-08-01T03:21:54.352Z,19.70
2022-08-01T03:24:22.217Z,19.70
2022-08-01T03:26:49.679Z,19.70
2022-08-01T03:29:22.616Z,19.70
2022-08-01T03:31:49.676Z,19.70
2022-08-01T03:34:16.383Z,19.70
2022-08-01T03:37:18.225Z,19.70
2022-08-01T03:39:47.912Z,19.70
2022-08-01T03:42:17.123Z,19.80
2022-08-01T03:44:47.879Z,19.70
2022-08-01T03:47:15.359Z,19.70
2022-08-01T03:49:48.078Z,19.70
2022-08-01T03:52:14.946Z,19.80
2022-08-01T03:54:43.528Z,19.80
2022-08-01T03:57:34.889Z,19.70
2022-08-01T03:59:59.378Z,19.80
2022-08-01T04:02:27.214Z,19.70
2022-08-01T04:04:54.239Z,19.70
2022-08-01T04:07:25.003Z,19.70
2022-08-01T04:09:52.445Z,19.70
2022-08-01T04:12:19.361Z,19.70
2022-08-01T04:14:46.147Z,19.70
2022-08-01T04:17:12.796Z,19.70
2022-08-01T04:19:39.587Z,19.70
2022-08-01T04:22:06.991Z,19.70
2022-08-01T04:24:34.537Z,19.70
2022-08-01T04:27:02.312Z,19.70
2022-08-01T04:29:30.229Z,19.80
2022-08-01T04:31:57.653Z,19.80
2022-08-01T04:34:26.743Z,19.80
2022-08-01T04:36:55.335Z,19.80
2022-08-01T04:39:24.471Z,19.80
2022-08-01T04:41:51.797Z,19.90
2022-08-01T04:44:18.469Z,19.90
2022-08-01T04:46:45.910Z,19.90
2022-08-01T04:49:13.035Z,19.90
2022-08-01T04:51:51.869Z,19.90
2022-08-01T04:54:18.692Z,19.90
2022-08-01T04:56:45.288Z,19.90
2022-08-01T04:59:36.322Z,19.90
2022-08-01T05:02:03.266Z,19.80
2022-08-01T05:04:29.939Z,19.90
2022-08-01T05:06:56.500Z,19.90
2022-08-01T05:09:23.210Z,19.90
2022-08-01T05:11:49.863Z,19.90
2022-08-01T05:14:16.423Z,19.90
2022-08-01T05:16:43.082Z,20.00
2022-08-01T05:19:09.803Z,20.00
2022-08-01T05:21:36.462Z,20.10
2022-08-01T05:24:03.372Z,20.10
2022-08-01T05:26:29.951Z,20.00
2022-08-01T05:28:58.574Z,20.10
2022-08-01T05:31:25.107Z,20.10
2022-08-01T05:33:51.767Z,20.10
2022-08-01T05:36:18.322Z,20.10
2022-08-01T05:38:44.885Z,20.20
2022-08-01T05:41:11.448Z,20.20
2022-08-01T05:43:38.012Z,20.10
2022-08-01T05:46:04.569Z,20.20
2022-08-01T05:48:31.303Z,20.10
2022-08-01T05:50:59.029Z,20.10
2022-08-01T05:53:25.855Z,20.20
2022-08-01T05:55:52.381Z,20.20
2022-08-01T05:58:18.914Z,20.20
2022-08-01T06:00:45.448Z,20.20
2022-08-01T06:03:12.391Z,20.20
2022-08-01T06:05:38.981Z,20.10
2022-08-01T06:08:05.556Z,20.20
2022-08-01T06:10:32.180Z,20.20
2022-08-01T06:12:58.818Z,20.20
2022-08-01T06:15:25.429Z,20.20
2022-08-01T06:17:51.981Z,20.30
2022-08-01T06:20:18.542Z,20.30
2022-08-01T06:22:45.072Z,20.30
2022-08-01T06:25:21.278Z,20.30
2022-08-01T06:27:48.410Z,20.30
2022-08-01T06:30:15.048Z,20.40
2022-08-01T06:32:41.696Z,20.30
2022-08-01T06:35:08.514Z,20.40
2022-08-01T06:37:35.146Z,20.40
2022-08-01T06:40:05.373Z,20.40
2022-08-01T06:42:38.408Z,20.50
2022-08-01T06:45:05.899Z,20.50
2022-08-01T06:47:32.491Z,20.40
2022-08-01T06:49:59.076Z,20.40
2022-08-01T06:52:25.831Z,20.30
2022-08-01T06:54:52.871Z,20.30
2022-08-01T06:57:21.079Z,20.20
2022-08-01T06:59:51.950Z,20.10
2022-08-01T07:02:21.453Z,20.00
2022-08-01T07:04:47.994Z,20.00
2022-08-01T07:07:14.533Z,20.00
2022-08-01T07:09:42.378Z,20.00
2022-08-01T07:12:09.116Z,20.00
2022-08-01T07:14:35.809Z,19.90
2022-08-01T07:17:02.368Z,20.00
2022-08-01T07:19:29.105Z,19.90
2022-08-01T07:21:55.705Z,20.00
2022-08-01T07:24:24.826Z,19.90
2022-08-01T07:26:55.047Z,20.00
2022-08-01T07:29:25.343Z,19.90
2022-08-01T07:31:56.027Z,20.00
2022-08-01T07:34:23.544Z,20.00
2022-08-01T07:36:50.199Z,20.00
2022-08-01T07:39:16.751Z,20.00
2022-08-01T07:41:53.103Z,20.00
2022-08-01T07:44:29.835Z,20.00
2022-08-01T07:46:56.550Z,20.00
2022-08-01T07:49:23.243Z,20.00
2022-08-01T07:52:03.914Z,20.00
2022-08-01T07:54:33.616Z,20.10
2022-08-01T07:57:01.173Z,20.00
2022-08-01T07:59:27.911Z,20.00
2022-08-01T08:01:54.541Z,20.00
2022-08-01T08:04:21.223Z,19.90
2022-08-01T08:06:48.578Z,19.90
2022-08-01T08:09:16.077Z,19.90
2022-08-01T08:11:47.387Z,19.90
2022-08-01T08:14:14.746Z,19.90
2022-08-01T08:16:41.304Z,19.90
2022-08-01T08:19:07.860Z,19.90
2022-08-01T08:21:34.522Z,20.00
2022-08-01T08:24:19.823Z,20.00
2022-08-01T08:26:48.613Z,20.10
2022-08-01T08:29:18.928Z,20.20
2022-08-01T08:31:51.324Z,20.20
2022-08-01T08:34:19.660Z,20.30
2022-08-01T08:36:47.985Z,20.40
2022-08-01T08:39:14.985Z,20.50
2022-08-01T08:41:41.754Z,20.60
2022-08-01T08:44:10.292Z,20.60
2022-08-01T08:46:41.499Z,20.70
2022-08-01T08:49:09.150Z,20.80
2022-08-01T08:51:38.975Z,20.80
2022-08-01T08:54:07.280Z,20.80
2022-08-01T08:56:35.271Z,20.80
2022-08-01T08:59:02.782Z,20.80
2022-08-01T09:01:29.511Z,20.80
2022-08-01T09:03:56.122Z,20.90
2022-08-01T09:06:23.040Z,20.80
2022-08-01T09:08:50.069Z,20.90
2022-08-01T09:11:22.793Z,21.00
2022-08-01T09:14:03.394Z,21.20
2022-08-01T09:16:30.452Z,21.30
2022-08-01T09:19:07.384Z,21.40
2022-08-01T09:22:01.814Z,21.50
2022-08-01T09:24:30.534Z,21.50
2022-08-01T09:26:57.843Z,21.50
2022-08-01T09:29:37.223Z,21.30
2022-08-01T09:32:06.242Z,21.40
2022-08-01T09:34:33.884Z,21.50
2022-08-01T09:37:02.362Z,21.60
2022-08-01T09:39:30.651Z,21.60
2022-08-01T09:41:58.248Z,21.60
2022-08-01T09:44:42.381Z,21.60
2022-08-01T09:47:10.327Z,21.60
2022-08-01T09:49:51.871Z,21.60
2022-08-01T09:52:21.130Z,21.70
2022-08-01T09:55:01.055Z,21.60
2022-08-01T09:57:28.241Z,21.70
2022-08-01T09:59:59.024Z,21.70
2022-08-01T10:02:38.177Z,21.90
2022-08-01T10:05:08.421Z,21.90
2022-08-01T10:07:57.945Z,21.90
2022-08-01T10:10:29.135Z,22.10
2022-08-01T10:12:58.776Z,22.10
2022-08-01T10:15:36.879Z,22.20
2022-08-01T10:18:06.103Z,22.20
2022-08-01T10:20:42.998Z,22.40
2022-08-01T10:23:11.016Z,22.50
2022-08-01T10:25:42.418Z,22.70
2022-08-01T10:28:23.733Z,22.80
2022-08-01T10:30:51.200Z,22.70
2022-08-01T10:33:50.611Z,22.80
2022-08-01T10:36:09.622Z,22.70
2022-08-01T10:38:37.268Z,22.90
2022-08-01T10:41:06.407Z,22.90
2022-08-01T10:43:33.405Z,22.90
2022-08-01T10:46:02.916Z,22.90
2022-08-01T10:48:40.387Z,23.00
2022-08-01T10:51:18.345Z,23.10
2022-08-01T10:53:54.121Z,23.10
2022-08-01T10:56:27.284Z,23.20
2022-08-01T10:59:02.136Z,23.30
2022-08-01T11:01:33.966Z,23.30
2022-08-01T11:04:12.592Z,23.50
2022-08-01T11:07:00.566Z,23.70
2022-08-01T11:09:37.297Z,23.80
2022-08-01T11:12:08.887Z,23.80
2022-08-01T11:14:58.851Z,23.50
2022-08-01T11:17:31.849Z,23.60
2022-08-01T11:20:08.752Z,23.50
2022-08-01T11:22:54.108Z,23.60
2022-08-01T11:25:21.213Z,23.50
2022-08-01T11:28:28.460Z,23.50
2022-08-01T11:31:18.276Z,23.60
2022-08-01T11:33:47.102Z,23.60
2022-08-01T11:36:14.832Z,23.60
2022-08-01T11:38:46.007Z,23.50
2022-08-01T11:41:20.953Z,23.40
2022-08-01T11:44:05.759Z,23.50
2022-08-01T11:46:52.189Z,23.50
2022-08-01T11:49:29.346Z,23.40
2022-08-01T11:52:00.010Z,23.40
2022-08-01T11:54:34.803Z,23.40
2022-08-01T11:57:07.097Z,23.40
2022-08-01T11:59:38.225Z,23.50
2022-08-01T12:02:30.458Z,23.50
2022-08-01T12:05:02.508Z,23.60
2022-08-01T12:07:32.978Z,23.30
2022-08-01T12:10:02.675Z,23.40
2022-08-01T12:12:30.134Z,23.50
2022-08-01T12:15:01.472Z,23.70
2022-08-01T12:17:29.496Z,23.80
2022-08-01T12:19:56.275Z,23.90
2022-08-01T12:22:23.459Z,24.00
2022-08-01T12:24:50.038Z,24.00
2022-08-01T12:27:27.120Z,24.20
2022-08-01T12:29:57.327Z,24.20
2022-08-01T12:32:35.439Z,24.30
2022-08-01T12:35:08.715Z,24.20
2022-08-01T12:37:38.936Z,24.30
2022-08-01T12:40:21.941Z,24.40
2022-08-01T12:42:50.530Z,24.50
2022-08-01T12:45:19.096Z,24.70
2022-08-01T12:47:46.674Z,24.70
2022-08-01T12:50:15.077Z,24.50
2022-08-01T12:52:41.843Z,24.70
2022-08-01T12:55:16.123Z,24.80
2022-08-01T12:57:45.432Z,24.90
2022-08-01T13:00:14.071Z,25.30
2022-08-01T13:02:41.257Z,25.30
2022-08-01T13:05:08.050Z,25.30
2022-08-01T13:07:45.859Z,25.60
2022-08-01T13:10:13.257Z,26.00
2022-08-01T13:12:41.165Z,26.00
2022-08-01T13:15:41.865Z,26.20
2022-08-01T13:18:28.051Z,26.30
2022-08-01T13:21:08.132Z,26.40
2022-08-01T13:24:03.191Z,26.60
2022-08-01T13:26:37.956Z,26.70
2022-08-01T13:29:05.335Z,26.40
2022-08-01T13:31:38.333Z,26.30
2022-08-01T13:34:05.294Z,26.40
2022-08-01T13:36:32.151Z,26.60
2022-08-01T13:39:17.924Z,26.50
2022-08-01T13:41:44.652Z,26.90
2022-08-01T13:44:11.571Z,27.20
2022-08-01T13:46:39.220Z,27.60
2022-08-01T13:49:16.762Z,27.70
2022-08-01T13:51:43.554Z,28.20
2022-08-01T13:54:10.109Z,28.60
2022-08-01T13:56:36.795Z,28.80
2022-08-01T13:59:03.450Z,28.90
2022-08-01T14:01:33.989Z,29.00
2022-08-01T14:04:01.211Z,29.10
2022-08-01T14:06:27.766Z,29.10
2022-08-01T14:08:54.419Z,29.10
2022-08-01T14:11:21.520Z,29.20
2022-08-01T14:13:48.123Z,29.20
2022-08-01T14:16:15.386Z,29.30
2022-08-01T14:18:42.191Z,29.80
2022-08-01T14:21:11.017Z,29.80
2022-08-01T14:23:37.680Z,29.70
2022-08-01T14:26:11.564Z,29.30
2022-08-01T14:28:39.124Z,29.10
2022-08-01T14:31:07.134Z,29.20
2022-08-01T14:33:34.262Z,28.90
2022-08-01T14:36:06.060Z,28.00
2022-08-01T14:38:47.675Z,28.70
2022-08-01T14:41:14.852Z,29.20
2022-08-01T14:43:41.443Z,29.30
2022-08-01T14:46:10.715Z,28.90
2022-08-01T14:48:37.282Z,29.50
2022-08-01T14:51:05.001Z,29.30
2022-08-01T14:53:34.446Z,28.80
2022-08-01T14:56:05.470Z,29.00
2022-08-01T14:58:32.157Z,28.90
2022-08-01T15:00:59.539Z,28.70
2022-08-01T15:03:26.460Z,29.10
2022-08-01T15:05:53.155Z,29.30
2022-08-01T15:08:19.709Z,29.20
2022-08-01T15:10:46.259Z,29.90
2022-08-01T15:13:12.819Z,30.20
2022-08-01T15:15:39.419Z,30.20
2022-08-01T15:18:06.030Z,30.40
2022-08-01T15:20:33.787Z,30.40
2022-08-01T15:23:00.492Z,31.10
2022-08-01T15:25:27.100Z,31.10
2022-08-01T15:28:09.166Z,31.10
2022-08-01T15:30:35.790Z,32.00
2022-08-01T15:33:02.388Z,32.80
2022-08-01T15:35:28.995Z,33.70
2022-08-01T15:37:55.522Z,33.00
2022-08-01T15:40:22.183Z,33.20
2022-08-01T15:42:48.777Z,33.10
2022-08-01T15:45:44.418Z,32.70
2022-08-01T15:48:05.777Z,33.10
2022-08-01T15:50:32.421Z,33.50
2022-08-01T15:52:58.978Z,34.60
2022-08-01T15:55:25.583Z,34.40
2022-08-01T15:57:52.148Z,34.80
2022-08-01T16:00:18.698Z,34.70
2022-08-01T16:02:45.396Z,33.80
2022-08-01T16:05:11.979Z,33.80
2022-08-01T16:08:01.430Z,34.70
2022-08-01T16:10:25.331Z,35.10
2022-08-01T16:12:51.911Z,34.80
2022-08-01T16:15:18.489Z,35.00
2022-08-01T16:17:45.036Z,34.60
2022-08-01T16:20:11.665Z,35.40
2022-08-01T16:22:38.304Z,34.40
2022-08-01T16:25:05.537Z,34.50
2022-08-01T16:27:32.105Z,35.10
2022-08-01T16:29:58.651Z,35.40
2022-08-01T16:32:31.269Z,35.50
2022-08-01T16:35:01.725Z,36.20
2022-08-01T16:37:28.356Z,35.70
2022-08-01T16:39:56.310Z,36.00
2022-08-01T16:42:23.063Z,36.30
2022-08-01T16:44:54.439Z,34.90
2022-08-01T16:47:20.987Z,34.80
2022-08-01T16:49:47.523Z,34.90
2022-08-01T16:52:14.106Z,35.00
2022-08-01T16:54:43.253Z,35.40
2022-08-01T16:57:10.189Z,36.10
2022-08-01T16:59:41.639Z,36.10
2022-08-01T17:02:12.078Z,36.40
2022-08-01T17:04:41.039Z,36.40
2022-08-01T17:07:07.983Z,36.60
2022-08-01T17:09:37.482Z,36.20
2022-08-01T17:12:06.685Z,36.30
2022-08-01T17:14:33.968Z,35.60
2022-08-01T17:17:00.649Z,36.40
2022-08-01T17:19:32.874Z,36.60
2022-08-01T17:22:00.103Z,36.50
2022-08-01T17:24:26.660Z,35.70
2022-08-01T17:26:53.284Z,35.30
2022-08-01T17:29:19.863Z,35.20
2022-08-01T17:31:46.403Z,34.90
2022-08-01T17:34:12.979Z,35.00
2022-08-01T17:36:39.558Z,35.40
2022-08-01T17:39:08.430Z,35.60
2022-08-01T17:41:35.023Z,35.40
2022-08-01T17:44:01.683Z,35.40
2022-08-01T17:46:28.249Z,34.90
2022-08-01T17:48:54.866Z,34.40
2022-08-01T17:51:22.984Z,33.90
2022-08-01T17:53:56.699Z,33.80
2022-08-01T17:56:27.333Z,33.70
2022-08-01T17:58:53.873Z,33.70
2022-08-01T18:01:21.205Z,32.70
2022-08-01T18:03:48.217Z,31.40
2022-08-01T18:06:17.248Z,30.40
2022-08-01T18:08:46.706Z,29.60
2022-08-01T18:11:14.001Z,29.10
2022-08-01T18:13:41.159Z,28.90
2022-08-01T18:16:08.837Z,28.30
2022-08-01T18:18:35.468Z,27.90
2022-08-01T18:21:02.289Z,27.60
2022-08-01T18:23:33.386Z,27.40
2022-08-01T18:26:03.388Z,27.10
2022-08-01T18:28:34.133Z,26.90
2022-08-01T18:31:01.900Z,26.70
2022-08-01T18:33:28.545Z,26.30
2022-08-01T18:35:56.175Z,26.10
2022-08-01T18:38:29.233Z,25.90
2022-08-01T18:40:55.944Z,25.70
2022-08-01T18:43:22.474Z,25.60
2022-08-01T18:45:49.275Z,25.20
2022-08-01T18:48:15.826Z,25.20
2022-08-01T18:50:42.457Z,25.10
2022-08-01T18:53:09.132Z,24.90
2022-08-01T18:55:35.723Z,24.80
2022-08-01T18:58:02.408Z,24.70
2022-08-01T19:00:29.038Z,24.50
2022-08-01T19:02:55.632Z,24.40
2022-08-01T19:05:22.194Z,24.20
2022-08-01T19:08:06.194Z,24.00
2022-08-01T19:10:39.983Z,24.00
2022-08-01T19:13:08.934Z,23.80
2022-08-01T19:15:35.877Z,23.70
2022-08-01T19:18:03.123Z,23.50
2022-08-01T19:20:30.284Z,23.40
2022-08-01T19:22:57.198Z,23.40
2022-08-01T19:25:24.364Z,23.20
2022-08-01T19:27:50.940Z,23.10
2022-08-01T19:30:19.055Z,23.00
2022-08-01T19:32:46.747Z,22.80
2022-08-01T19:35:14.548Z,22.80
2022-08-01T19:37:45.695Z,22.70
2022-08-01T19:40:27.635Z,22.50
2022-08-01T19:42:55.893Z,22.40
2022-08-01T19:45:22.760Z,22.20
2022-08-01T19:47:56.198Z,22.20
2022-08-01T19:50:24.252Z,22.00
2022-08-01T19:52:51.800Z,21.90
2022-08-01T19:55:18.743Z,21.80
2022-08-01T19:57:59.425Z,21.70
2022-08-01T20:00:36.719Z,21.60
2022-08-01T20:03:03.889Z,21.50
2022-08-01T20:05:30.790Z,21.40
2022-08-01T20:07:58.236Z,21.20
2022-08-01T20:10:24.861Z,21.10
2022-08-01T20:12:52.476Z,21.00
2022-08-01T20:15:19.362Z,20.90
2022-08-01T20:17:45.962Z,20.80
2022-08-01T20:20:12.641Z,20.80
2022-08-01T20:22:40.868Z,20.70
2022-08-01T20:25:08.359Z,20.60
2022-08-01T20:27:35.652Z,20.50
2022-08-01T20:30:02.301Z,20.50
2022-08-01T20:32:31.658Z,20.40
2022-08-01T20:34:58.736Z,20.40
2022-08-01T20:38:06.065Z,20.30
2022-08-01T20:40:12.606Z,20.20
2022-08-01T20:42:40.038Z,20.00
2022-08-01T20:45:07.161Z,20.00
2022-08-01T20:47:39.180Z,20.00
2022-08-01T20:50:27.784Z,19.90
2022-08-01T20:53:11.123Z,19.90
2022-08-01T20:55:49.494Z,19.70
2022-08-01T20:58:19.970Z,19.70
2022-08-01T21:00:48.459Z,19.60
2022-08-01T21:03:18.767Z,19.60
2022-08-01T21:05:58.747Z,19.50
2022-08-01T21:08:42.259Z,19.40
2022-08-01T21:11:12.938Z,19.40
2022-08-01T21:13:43.526Z,19.30
2022-08-01T21:16:23.549Z,19.20
2022-08-01T21:19:25.644Z,19.10
2022-08-01T21:21:50.156Z,19.00
2022-08-01T21:24:18.328Z,18.90
2022-08-01T21:26:46.432Z,18.90
2022-08-01T21:29:13.172Z,18.80
2022-08-01T21:31:41.303Z,18.80
2022-08-01T21:34:08.443Z,18.70
2022-08-01T21:36:35.596Z,18.70
2022-08-01T21:39:04.062Z,18.60
2022-08-01T21:42:05.318Z,18.60
2022-08-01T21:44:24.391Z,18.50
2022-08-01T21:46:58.382Z,18.50
2022-08-01T21:49:25.050Z,18.40
2022-08-01T21:51:54.182Z,18.40
2022-08-01T21:54:24.331Z,18.30
2022-08-01T21:56:52.675Z,18.20
2022-08-01T21:59:37.628Z,18.20
2022-08-01T22:02:08.998Z,18.10
2022-08-01T22:04:44.934Z,18.10
2022-08-01T22:07:13.427Z,18.10
2022-08-01T22:09:44.004Z,18.00
2022-08-01T22:12:16.089Z,18.00
2022-08-01T22:14:46.746Z,17.90
2022-08-01T22:17:16.963Z,17.90
2022-08-01T22:19:45.582Z,17.80
2022-08-01T22:22:44.507Z,17.80
2022-08-01T22:25:00.880Z,17.80
2022-08-01T22:28:03.011Z,17.70
2022-08-01T22:30:15.499Z,17.70
2022-08-01T22:32:42.839Z,17.60
2022-08-01T22:35:11.530Z,17.60
2022-08-01T22:37:56.537Z,17.60
2022-08-01T22:40:24.142Z,17.60
2022-08-01T22:42:59.385Z,17.50
2022-08-01T22:45:35.591Z,17.50
2022-08-01T22:48:08.426Z,17.50
2022-08-01T22:50:39.632Z,17.50
2022-08-01T22:53:21.535Z,17.40
2022-08-01T22:55:58.844Z,17.40
2022-08-01T22:58:28.934Z,17.40
2022-08-01T23:00:56.287Z,17.40
2022-08-01T23:03:26.506Z,17.40
2022-08-01T23:06:02.156Z,17.30
2022-08-01T23:08:29.866Z,17.30
2022-08-01T23:10:56.482Z,17.30
2022-08-01T23:13:23.166Z,17.30
2022-08-01T23:15:52.264Z,17.20
2022-08-01T23:18:20.095Z,17.30
2022-08-01T23:20:46.954Z,17.30
2022-08-01T23:23:15.546Z,17.30
2022-08-01T23:25:43.091Z,17.20
2022-08-01T23:28:09.830Z,17.30
2022-08-01T23:30:36.366Z,17.20
2022-08-01T23:33:03.237Z,17.20
2022-08-01T23:35:30.528Z,17.20
2022-08-01T23:38:02.529Z,17.20
2022-08-01T23:40:30.251Z,17.20
2022-08-01T23:42:58.933Z,17.20
2022-08-01T23:45:25.471Z,17.10
2022-08-01T23:47:52.498Z,17.10
2022-08-01T23:50:19.595Z,17.10
2022-08-01T23:52:50.586Z,17.10
2022-08-01T23:55:18.944Z,17.10
2022-08-01T23:57:45.529Z,17.00
